Pagrindinis puslapis
METAR-TAF:

METAR-TAF

Oro uostai :

Vanas, Turkija

platuma: 38-27N, ilguma: 043-19E, Aukštis: 1667 m

Dabartinis oras

Ataskaita buvo paskelbta 23 minutes, ne 23:50 UTC
Vėjas 4 kt iš Rytų/Šiaurės Rytų
Temperatūra 10°C
Drėgmė 71%
Slėgis 1023 hPa
Matomumas 10 km arba daugiau
nėra debesų žemiau 1500 m ir nėra kamuolinių lietaus debesų

METAR: LTCI 182350Z 07004KT CAVOK 10/05 Q1023 NOSIG

Laikas: 03:13 (00:13 UTC)

Prognozė

Ataskaita buvo paskelbta 1 valandą ir 33 minutes, ne 22:40 UTC
Prognozė galioja nuo 19 metu 00 UTC su 19 metu 09 UTC
Vėjas 6 kt iš Rytų/Pietryčių
Matomumas 10 km arba daugiau
nėra debesų žemiau 1500 m ir nėra kamuolinių lietaus debesų
Tapsmas
nuo 19 metu 04 UTC su 19 metu 06 UTC
Vėjas 10 kt iš Vakarų/Šiaurės Vakarų

TAF: LTCI 182240Z 1900/1909 12006KT CAVOK BECMG 1904/1906 30010KT

Orai ataskaitas ir orų prognozės (METAR, TAF).

turimą stotys yra geltonos ir raudonos taškus žemėlapyje.

Perkelti pele per norėdami pamatyti stoties vardą.

Tada spustelėkite, norėdami matyti oro stebėjimo ir prognozės.

Norėdami pakeisti žemėlapį: spustelėkite ant žalios mygtukų su juodo kryžiaus žemyn,; žalią mygtuką su brūkšneliu, jei norite nutolinti; arba žalių rodyklių gretimoms žemėlapius.


METAR-TAF: